Flight Track Log - Related Links

Times and Time Zones

All times are in EDT time to prevent confusion due to time zone crossing. See the N770NC flight status page for this flight to view local times or setup timezone preferences in your user account.

Time Position Orientation Groundspeed Altitude Reporting Facility
EDT Latitude Longitude Course Direction KTS MPH feet Rate Location/Type
Mon 04:38:12 PM 36.1000 -86.6833 136° Southeast 164 189 1,400  Level Nashville TRACON
Mon 04:39:18 PM 36.0333 -86.6833 180° South 224 258 3,300 1,500 Climbing Nashville TRACON
Mon 04:40:24 PM 35.9500 -86.6833 180° South 269 310 4,700 1,721 Climbing Nashville TRACON
Mon 04:41:00 PM 35.8441 -86.4156 145° Southeast  Level Estimated
Mon 04:41:20 PM 35.8853 -86.6831 180° South 292 336 6,800  Level Memphis Center
Mon 04:42:00 PM 35.7739 -86.3503 152° Southeast  Level Estimated
Mon 04:42:20 PM 35.8058 -86.6789 178° South 301 346 8,900  Level Memphis Center
Mon 04:43:00 PM 35.7036 -86.2851 136° Southeast  Level Estimated
Mon 04:43:20 PM 35.7244 -86.6772 179° South 301 346 10,800  Level Memphis Center
Mon 04:44:20 PM 35.6247 -86.6894 186° South 330 380 11,800 1,550 Climbing Memphis Center
Mon 04:45:20 PM 35.5228 -86.7017 186° South 361 415 13,900 1,750 Climbing Memphis Center
Mon 04:46:20 PM 35.4369 -86.6186 142° Southeast 381 438 15,300 1,450 Climbing Memphis Center
Mon 04:47:20 PM 35.3544 -86.5131 134° Southeast 409 471 16,800 1,150 Climbing Memphis Center
Mon 04:48:20 PM 35.2717 -86.4022 132° Southeast 436 502 17,600 1,000 Climbing Memphis Center
Mon 04:49:20 PM 35.1867 -86.2844 131° Southeast 455 524 18,800 1,350 Climbing Memphis Center
Mon 04:50:20 PM 35.1078 -86.1742 131° Southeast 462 532 20,300 1,150 Climbing Memphis Center
Mon 04:51:20 PM 35.0142 -86.0569 134° Southeast 473 544 21,100 844 Climbing Memphis Center
Mon 04:53:32 PM 34.7939 -85.8067 137° Southeast 495 570 23,000 594 Climbing Atlanta Center
Mon 04:54:32 PM 34.6931 -85.6911 137° Southeast 500 575 23,000  Level Atlanta Center
Mon 04:55:32 PM 34.5903 -85.5756 137° Southeast 500 575 23,000 -950 Level Atlanta Center
Mon 04:56:32 PM 34.4872 -85.4678 139° Southeast 500 575 21,100 -2,650 Descending Atlanta Center
Mon 04:57:32 PM 34.3861 -85.3703 141° Southeast 489 563 17,700 -2,950 Descending Atlanta Center
Mon 04:58:32 PM 34.2889 -85.2808 143° Southeast 459 528 15,200 -1,750 Descending Atlanta Center
Mon 04:59:32 PM 34.2211 -85.1769 128° Southeast 410 472 14,200 -600 Descending Atlanta Center
Mon 05:00:32 PM 34.1489 -85.0731 130° Southeast 383 441 14,000 -100 Descending Atlanta Center
Mon 05:01:32 PM 34.0933 -84.9869 128° Southeast 342 394 14,000 -200 Level Atlanta Center
Mon 05:02:32 PM 34.0353 -84.9086 132° Southeast 325 374 13,600 -1,250 Descending Atlanta Center
Mon 05:03:32 PM 33.9711 -84.8328 136° Southeast 319 367 11,500 -1,300 Descending Atlanta Center
Mon 05:04:32 PM 33.9069 -84.7622 138° Southeast 319 367 11,000 -250 Descending Atlanta Center
Mon 05:05:32 PM 33.8428 -84.6892 137° Southeast 319 367 11,000  Level Atlanta Center
Mon 05:06:32 PM 33.7783 -84.6186 138° Southeast 319 367 11,000  Level Atlanta Center
Mon 05:07:30 PM 33.7500 -84.5167 108° East 310 357 11,000 -589 Level Atlanta TRACON
Mon 05:08:24 PM 33.7333 -84.4333 104° East 282 325 9,900 -1,526 Descending Atlanta TRACON
Mon 05:09:24 PM 33.7333 -84.3500 90° East 280 322 8,100 -1,842 Descending Atlanta TRACON
Mon 05:10:18 PM 33.7333 -84.2667 90° East 260 299 6,400 -1,579 Descending Atlanta TRACON
Mon 05:11:18 PM 33.7167 -84.2000 107° East 238 274 5,100 -1,150 Descending Atlanta TRACON
Mon 05:12:18 PM 33.6667 -84.2167 196° South 182 209 4,100 -900 Descending Atlanta TRACON
Mon 05:13:18 PM 33.6500 -84.2667 248° West 184 212 3,300 -800 Descending Atlanta TRACON

Login

Don't have an account? Register now (free) for customized features, flight alerts, and more!